Onsdag 2022-09-28 14:50:26 vecka 39, namnsdag Lennart, Leonard, imorgon Mikael, Mikaela  [Huvudmeny]   minomax.se   minomax.se/metar   minomax.se/flyg   wwwinfo.se   medd.nu  -  meddelanden   kakor METAR-data Visa METAR-temperaturer och data
Land: skriv landsbeteckning, 2 bokstäver, tex. se för Sverige. Sök land Sökord: skriv sökord, eller lämna tomt så visas alla Visar METAR för SE- Sverige Land/ IATA/ICAO Id Flygplats Temp Tid Datum region METAR... ---- ------------------------- ---- ----- ---------- ------ --- ------------... ESCF Linköping/Malmen Air Base 14 14:20 2022-09-28 SE-E --- ESCF 281220Z 08014KT 9999 SCT030 BKN200 14/09 Q1001= ESCM Uppsala Airport 13 14:20 2022-09-28 SE-C --- ESCM 281220Z 09012KT 9999 SCT026 13/08 Q1006= ESDF Ronneby Airport 11 14:20 2022-09-28 SE-K RNB ESDF 281220Z 04005KT 9999 -RA SCT006 OVC055 11/11 Q0995= ESGG Gothenburg-Landvetter Air 14 14:20 2022-09-28 SE-Q GOT ESGG 281220Z 07013KT 9999 FEW026 BKN040 14/08 Q0997= ESGJ Jönköping Airport 13 14:20 2022-09-28 SE-F JKG ESGJ 281220Z 07013KT 9999 BKN025 13/09 Q0998=
ESGP Gothenburg City Airport 15 14:20 2022-09-28 SE-Q GSE ESGP 281220Z 07014KT 9999 FEW037 SCT045 BKN074 15/08 Q0997= ESGR Skövde Airport 3 (14:50 2022-03-31) SE-Q KVB ESGR 311250Z AUTO /////KT 9999 -RA OVC055/// 03/M08 Q1011 REUP= ESGT Trollhättan-Vänersborg Ai 14 14:20 2022-09-28 SE-Q THN ESGT 281220Z 06013KT 9999 SCT030 OVC060 14/09 Q0999= ESIA Karlsborg Air Base 13 14:20 2022-09-28 SE-Q --- ESIA 281220Z 08014KT 9999 FEW020 SCT039 BKN050 13/10 Q1001= ESIB Såtenäs Air Base 14 14:20 2022-09-28 SE-Q --- ESIB 281220Z 07016KT 9999 FEW028 FEW035TCU BKN045 BKN070 14/10 Q0999=
ESKM Mora Airport 13 14:20 2022-09-28 SE-W MXX ESKM 281220Z AUTO 06009KT 030V090 9999 FEW034/// SCT045/// BKN057/// 13/07 Q1007= ESKN Stockholm / Nyköping/Stoc 14 14:20 2022-09-28 SE-D NYO ESKN 281220Z 07018KT 9999 SCT024TCU 14/09 Q1003= ESKS Sälen - Trysil Airport 10 14:20 2022-09-28 SE-W SCR ESKS 281220Z AUTO 08010KT 040V110 9999 FEW022/// OVC039/// 10/06 Q1007= ESMK Kristianstad Airport 11 14:20 2022-09-28 SE-M KID ESMK 281220Z VRB02KT 9999 -RA SCT007 BKN045 11/11 Q0995= ESMQ Kalmar Airport 13 14:20 2022-09-28 SE-H KLR ESMQ 281220Z 07014KT 9999 FEW013 SCT019 BKN026 13/12 Q0996=
ESMS Malmö Sturup Airport 12 14:20 2022-09-28 SE-M MMX ESMS 281220Z 29007KT 9999 FEW016 12/07 Q0995= ESMT Halmstad Airport 11 14:20 2022-09-28 SE-N HAD ESMT 281220Z 07008KT 9000 -RA BKN013 11/11 Q0995= ESMV Hagshult Air Base 13 14:20 2022-09-28 SE-F --- ESMV 281220Z AUTO 06011KT 030V090 9999 SCT023/// BKN070/// OVC200/// 13/12 Q0996= ESMX Växjö Kronoberg Airport 12 14:20 2022-09-28 SE-G VXO ESMX 281220Z AUTO 06010KT 030V100 9999 -DZ BKN016/// BKN027/// OVC059/// 12/11 Q0996 RERA= ESND Sveg Airport 10 14:20 2022-09-28 SE-Z EVG ESND 281220Z AUTO 09010KT 9999 FEW013/// BKN022/// OVC053/// 10/07 Q1009=
ESNG Gällivare Airport 7 14:20 2022-09-28 SE-BD GEV ESNG 281220Z AUTO 11007KT 8000 BR BKN005/// OVC010/// 07/// Q1013= ESNK Kramfors / Sollefteå/Kram 12 14:20 2022-09-28 SE-Y KRF ESNK 281220Z 10005KT 060V130 9999 FEW019 OVC057 12/08 Q1012= ESNL Lycksele Airport 10 14:20 2022-09-28 SE-AC LYC ESNL 281220Z AUTO 36003KT 9999 FEW029/// SCT040/// 10/05 Q1013= ESNN Sundsvall/ Härnösand/Sund 11 14:20 2022-09-28 SE-Y SDL ESNN 281220Z 09006KT 050V120 9999 SCT015 BKN076 11/08 Q1011= ESNO Örnsköldsvik Airport 10 14:20 2022-09-28 SE-Y OER ESNO 281220Z AUTO 07005KT 030V100 9999 FEW010/// BKN013/// OVC051/// 10/08 Q1012=
ESNQ Kiruna Airport 6 14:20 2022-09-28 SE-BD KRN ESNQ 281220Z 22003KT 7000 BKN004 06/05 Q1013= ESNS Skellefteå Airport 9 14:20 2022-09-28 SE-AC SFT ESNS 281220Z VRB03KT 9999 SCT008 BKN026 OVC061 09/09 Q1014= ESNU Umeå Airport 10 14:20 2022-09-28 SE-AC UME ESNU 281220Z 03005KT 010V070 9999 BKN009 OVC049 10/08 Q1013= ESNV Vilhelmina Airport XXX 14:20 2022-09-28 SE-AC VHM ESNV 281220Z AUTO 12005KT 9999 BKN034/// ///// Q1012= ESNX Arvidsjaur Airport 7 14:20 2022-09-28 SE-BD AJR ESNX 281220Z AUTO VRB03KT 9999 OVC012/// 07/05 Q1013=
ESNZ Åre Östersund Airport 9 14:20 2022-09-28 SE-Z OSD ESNZ 281220Z 11009KT 9999 FEW032 BKN045 09/09 Q1010= ESOE Örebro Airport 15 14:20 2022-09-28 SE-T ORB ESOE 281220Z AUTO 07015G25KT 050V110 9999 FEW027/// SCT076/// 15/09 Q1003= ESOH Hagfors Airport 13 14:20 2022-09-28 SE-S HFS ESOH 281220Z AUTO 06009KT 010V140 9999 FEW025/// BKN066/// 13/08 Q1005= ESOK Karlstad Airport 13 14:20 2022-09-28 SE-S KSD ESOK 281220Z 07013KT 9999 BKN030 13/07 Q1003= ESOW Stockholm Västerås Airpor 12 14:20 2022-09-28 SE-U VST ESOW 281220Z 07008KT 9999 VCSH SCT030TCU BKN055 12/09 Q1005=
ESPA Luleå Airport 10 14:20 2022-09-28 SE-BD LLA ESPA 281220Z 13007KT 9999 FEW011 SCT013 BKN049 10/08 Q1014= ESPE Vidsel Air Base 8 14:20 2022-09-28 SE-BD --- ESPE 281220Z 00000KT 9999 SCT008 SCT010 BKN013 08/07 Q1014= ESSA Stockholm-Arlanda Airport 12 14:20 2022-09-28 SE-AB ARN ESSA 281220Z 07014KT 9999 FEW031 BKN046 12/06 Q1005 NOSIG= ESSB Stockholm-Bromma Airport 13 14:20 2022-09-28 SE-AB BMA ESSB 281220Z 07011KT 040V110 9999 FEW024 BKN045 13/07 Q1005= ESSD Borlange Airport 12 14:20 2022-09-28 SE-W BLE ESSD 281220Z 07011KT 9999 SCT034 12/05 Q1006=
ESSL Linköping City Airport 14 14:20 2022-09-28 SE-E LPI ESSL 281220Z 08011KT 9999 SCT028 SCT047 14/09 Q1001= ESSP Norrköping Airport 14 14:20 2022-09-28 SE-E NRK ESSP 281220Z 09019KT 9999 SCT025 14/09 Q1002= ESST Torsby Airport 14 14:20 2022-09-28 SE-S TYF ESST 281220Z AUTO 06009KT 020V100 9999 BKN062/// 14/09 Q1005= ESSV Visby Airport 13 14:20 2022-09-28 SE-I VBY ESSV 281220Z 08019KT 9999 SCT022 13/09 Q1000= ESTA Ängelholm-Helsingborg Air 11 14:20 2022-09-28 SE-M AGH ESTA 281220Z 00000KT 7000 RA SCT006 BKN022 BKN029 11/10 Q0995=
ESTL Ljungbyhed Airport 11 14:20 2022-09-28 SE-M --- ESTL 281220Z 29004KT 9999 -RA FEW008 BKN015 11/11 Q0995= ESUP Pajala Airport 7 14:20 2022-09-28 SE-BD PJA ESUP 281220Z AUTO 13007KT 9999 BKN005/// BKN008/// OVC013/// 07/07 Q1015= ESUT Hemavan Airport 8 14:20 2022-09-28 SE-AC HMV ESUT 281220Z 12010KT 9999 OVC025 08/03 Q1012= (48 rader visades) Du kan lägga till id-beteckningen först på raden i valfri Lista 1 - 5 [top] ↕°C [1] [2] [3] [4] [5] ??? LISTOR 00-nr NOT MEDD MT METAR SYNOP SE SE-AB SE-C SE-D SE-E SE-F SE-G SE-H SE-I SE-K SE-M SE-N SE-O SE-P SE-T SE-U SE-W SE-X SE-Y SE-Z SE-AC SE-BD rådata flyg flyg_osd